Taisei Maru No.37 — JJ3822 — position and weather

sailwx.info

Track history (hours):
 
Tides and Currents Weather Stations Pressure Air Temp Water Temp Dewpoint Dewpoint Depression Visibility Wind Speed Wind Dir Waves Ship Positions

Taisei Maru No.37

Last reported at 2018-Feb-23 02:30 UTC. Time now 2018-Feb-23 02:48 UTC.
Position N 35°35' E 139°46'.

Length 73 m; draft 4 m.

Type: Cargo ship. MMSI: 431300239.

Date/timePositionNaut miles runAvg speedWind from/ knotsBaromVisibWave heightAir tempDewpointWater temp
2018-Feb-23 02:30N 35°35' E 139°46'0 0.0
2018-Feb-23 02:00N 35°35' E 139°46'0 0.0
2018-Feb-23 01:30N 35°35' E 139°46'0 0.0
2018-Feb-23 01:00N 35°35' E 139°46'0 0.0
2018-Feb-23 00:31N 35°35' E 139°46'0 0.0
2018-Feb-23 00:00N 35°35' E 139°46'0 0.0
2018-Feb-22 23:30N 35°35' E 139°46'0 0.0
2018-Feb-22 23:00N 35°35' E 139°46'0 0.0
2018-Feb-22 22:31N 35°35' E 139°46'0 0.0
2018-Feb-22 22:00N 35°35' E 139°46'0 0.0
2018-Feb-22 21:30N 35°35' E 139°46'0 0.0
2018-Feb-22 20:59N 35°35' E 139°46'0 0.0
2018-Feb-22 20:31N 35°35' E 139°46'3 6.4
2018-Feb-22 20:00N 35°34' E 139°50'510.9
2018-Feb-22 19:30N 35°37' E 139°56'4 2.8
2018-Feb-22 17:54N 35°41' E 139°59'0 0.0
2018-Feb-22 17:21N 35°41' E 139°59'0 0.0
2018-Feb-22 16:50N 35°41' E 139°59'0 0.0
2018-Feb-22 16:29N 35°41' E 139°59'0 0.0
2018-Feb-22 16:01N 35°41' E 139°59'0 0.0
2018-Feb-22 15:27N 35°41' E 139°59'0 0.0
2018-Feb-22 13:57N 35°41' E 139°59'0 0.0
2018-Feb-22 11:50N 35°41' E 139°59'0 0.0
2018-Feb-22 10:50N 35°41' E 139°59'0 0.0
2018-Feb-22 10:24N 35°41' E 139°59'0 0.0
2018-Feb-22 09:11N 35°41' E 139°59'0 0.0
2018-Feb-22 08:37N 35°41' E 139°59'0 0.0
2018-Feb-22 08:10N 35°41' E 139°59'0 0.0
2018-Feb-22 07:57N 35°41' E 139°59'0 0.0
2018-Feb-22 05:25N 35°41' E 139°59'0 0.0
2018-Feb-22 02:46N 35°41' E 139°59'0 0.0
2018-Feb-22 02:23N 35°41' E 139°59'0 0.0
2018-Feb-22 01:58N 35°41' E 139°59'0 0.0
2018-Feb-22 01:00N 35°41' E 139°59'0 0.0
2018-Feb-22 00:30N 35°41' E 139°59'0 0.0
2018-Feb-21 23:58N 35°41' E 139°59'0 0.1
2018-Feb-21 23:29N 35°41' E 139°59'3 7.2
2018-Feb-21 23:00N 35°37' E 139°58'1 1.1
2018-Feb-21 22:30N 35°37' E 139°58'0 0.0
2018-Feb-21 22:00N 35°37' E 139°58'0 0.1
2018-Feb-21 21:31N 35°37' E 139°58'0 0.1
2018-Feb-21 20:57N 35°37' E 139°58'0 0.1
2018-Feb-21 20:29N 35°37' E 139°58'0 0.8
2018-Feb-21 19:59N 35°36' E 139°57'510.9
2018-Feb-21 19:30N 35°32' E 139°54'510.9
2018-Feb-21 19:00N 35°28' E 139°50'510.6
2018-Feb-21 18:30N 35°24' E 139°46'510.5
2018-Feb-21 18:00N 35°18' E 139°44'510.4
2018-Feb-21 17:30N 35°14' E 139°47'611.2
2018-Feb-21 17:00N 35°08' E 139°46'611.6
2018-Feb-21 16:30N 35°03' E 139°42'611.5
2018-Feb-21 16:00N 34°59' E 139°37'1910.8
2018-Feb-21 14:17N 34°49' E 139°18'311.6
2018-Feb-21 13:59N 34°47' E 139°15'811.1
2018-Feb-21 13:17N 34°42' E 139°08'310.0
2018-Feb-21 13:00N 34°40' E 139°05'510.0
2018-Feb-21 12:30N 34°37' E 138°60'610.2
2018-Feb-21 11:54N 34°35' E 138°53'911.3
2018-Feb-21 11:07N 34°32' E 138°43'211.3
2018-Feb-21 10:54N 34°32' E 138°40'711.6
2018-Feb-21 10:20N 34°30' E 138°32'33210.1
2018-Feb-20 01:30N 33°17' E 132°03'910.0
2018-Feb-20 00:36N 33°24' E 131°56'1 9.9
2018-Feb-20 00:30N 33°25' E 131°56'810.0
2018-Feb-19 23:43N 33°31' E 131°50'210.1
2018-Feb-19 23:29N 33°33' E 131°49'5 9.7
2018-Feb-19 23:00N 33°37' E 131°45'510.1
2018-Feb-19 22:29N 33°41' E 131°41'4 9.2
2018-Feb-19 22:00N 33°42' E 131°36'510.6
2018-Feb-19 21:30N 33°45' E 131°30'511.0
2018-Feb-19 21:00N 33°47' E 131°24'611.4
2018-Feb-19 20:30N 33°49' E 131°18'611.5
2018-Feb-19 20:00N 33°51' E 131°12'611.8
2018-Feb-19 19:30N 33°54' E 131°06'611.8
2018-Feb-19 19:00N 33°59' E 131°00'612.1
2018-Feb-19 18:31N 33°54' E 130°55'4 8.9
2018-Feb-19 18:00N 33°58' E 130°52'510.7
2018-Feb-19 17:30N 34°03' E 130°51'611.0
2018-Feb-19 17:00N 34°09' E 130°50'611.2
2018-Feb-19 16:30N 34°14' E 130°49'611.0
2018-Feb-19 15:59N 34°20' E 130°48'5 9.3
2018-Feb-19 15:29N 34°24' E 130°51'1 0.1
2018-Feb-19 07:57N 34°23' E 130°51'511.3
2018-Feb-19 07:30N 34°19' E 130°49'611.7
2018-Feb-19 07:00N 34°13' E 130°49'612.1
2018-Feb-19 06:31N 34°07' E 130°50'612.4
2018-Feb-19 06:00N 34°01' E 130°53'510.9
2018-Feb-19 05:31N 33°55' E 130°53'4 8.1
2018-Feb-19 05:01N 33°58' E 130°57'510.1
2018-Feb-19 04:30N 33°56' E 131°03'612.3
2018-Feb-19 04:00N 33°50' E 131°04'4 8.4
2018-Feb-19 03:30N 33°47' E 131°00'0 0.0
2018-Feb-19 03:00N 33°47' E 131°00'0 0.0
2018-Feb-19 02:30N 33°47' E 131°00'0 0.0
2018-Feb-19 02:00N 33°47' E 131°00'0 0.0
2018-Feb-19 01:30N 33°47' E 131°00'0 0.0
2018-Feb-19 01:00N 33°47' E 131°00'0 0.0
2018-Feb-19 00:30N 33°47' E 131°00'0 0.0
2018-Feb-19 00:00N 33°47' E 131°00'0 0.0
2018-Feb-18 23:30N 33°47' E 131°00'0 0.0
2018-Feb-18 22:59N 33°47' E 131°00'1 1.7
2018-Feb-18 22:30N 33°46' E 130°60'0 0.0
2018-Feb-18 22:00N 33°46' E 130°60'0 0.0
2018-Feb-18 21:30N 33°46' E 130°60'0 0.0
2018-Feb-18 21:00N 33°46' E 130°60'0 0.0
2018-Feb-18 20:30N 33°46' E 130°60'0 0.0
2018-Feb-18 20:00N 33°46' E 130°60'0 0.0
2018-Feb-18 19:29N 33°46' E 130°60'0 0.0
2018-Feb-18 19:00N 33°46' E 130°60'0 0.0
2018-Feb-18 18:30N 33°46' E 130°60'0 0.0
2018-Feb-18 18:00N 33°46' E 130°60'0 0.0
2018-Feb-18 17:30N 33°46' E 130°60'0 0.0
2018-Feb-18 17:00N 33°46' E 130°60'0 0.0
2018-Feb-18 16:30N 33°46' E 130°60'0 0.0
2018-Feb-18 16:00N 33°46' E 130°60'0 0.0
2018-Feb-18 15:30N 33°46' E 130°60'0 0.0
2018-Feb-18 15:00N 33°46' E 130°60'0 0.0
2018-Feb-18 14:30N 33°46' E 130°60'0 0.0
2018-Feb-18 13:59N 33°46' E 130°60'0 0.0
2018-Feb-18 13:30N 33°46' E 130°60'0 0.0
2018-Feb-18 13:00N 33°46' E 130°60'0 0.0
2018-Feb-18 12:30N 33°46' E 130°60'0 0.0
2018-Feb-18 12:00N 33°46' E 130°60'0 0.0
2018-Feb-18 11:30N 33°46' E 130°60'0 0.0
2018-Feb-18 11:00N 33°46' E 130°60'0 0.0
2018-Feb-18 10:30N 33°46' E 130°60'0 0.0
2018-Feb-18 10:00N 33°46' E 130°60'0 0.1
2018-Feb-18 09:30N 33°46' E 130°60'0 0.1
2018-Feb-18 09:00N 33°46' E 130°60'0 0.0
2018-Feb-18 08:30N 33°46' E 130°60'0 0.0
2018-Feb-18 08:00N 33°46' E 130°60'0 0.0
2018-Feb-18 07:30N 33°46' E 130°60'0 0.0
2018-Feb-18 07:00N 33°46' E 130°60'0 0.0
2018-Feb-18 06:30N 33°46' E 130°60'0 0.0
2018-Feb-18 05:59N 33°46' E 130°60'0 0.0
2018-Feb-18 05:30N 33°46' E 130°60'0 0.0
2018-Feb-18 05:00N 33°46' E 130°60'0 0.0
2018-Feb-18 04:30N 33°46' E 130°60'0 0.0
2018-Feb-18 04:00N 33°46' E 130°60'0 0.0
2018-Feb-18 03:30N 33°46' E 130°60'0 0.0
2018-Feb-18 02:59N 33°46' E 130°60'0 0.0
2018-Feb-18 02:30N 33°46' E 130°60'0 0.0
2018-Feb-18 02:00N 33°46' E 130°60'0 0.0
2018-Feb-18 01:30N 33°46' E 130°60'0 0.0
2018-Feb-18 01:00N 33°46' E 130°60'1 1.9
2018-Feb-18 00:30N 33°47' E 131°01'510.5
2018-Feb-18 00:00N 33°49' E 131°07'612.2
2018-Feb-17 23:30N 33°48' E 131°14'612.3
2018-Feb-17 23:00N 33°48' E 131°21'612.4
2018-Feb-17 22:30N 33°47' E 131°29'612.6
2018-Feb-17 22:00N 33°47' E 131°36'612.4
2018-Feb-17 21:30N 33°47' E 131°44'2411.8
2018-Feb-17 19:26N 33°43' E 132°13'812.6
2018-Feb-17 18:47N 33°46' E 132°22'512.8
2018-Feb-17 18:24N 33°48' E 132°28'513.2
2018-Feb-17 18:00N 33°51' E 132°33'713.3
2018-Feb-17 17:30N 33°55' E 132°39'713.2
2018-Feb-17 17:00N 34°00' E 132°44'8410.4
2018-Feb-17 08:53N 34°22' E 134°23'610.7
2018-Feb-17 08:20N 34°19' E 134°29'510.8
2018-Feb-17 07:54N 34°17' E 134°34'4 9.9
2018-Feb-17 07:30N 34°15' E 134°39'6 9.2
2018-Feb-17 06:50N 34°09' E 134°40'410.6
2018-Feb-17 06:25N 34°05' E 134°38'4 9.9
2018-Feb-17 06:00N 34°01' E 134°37'0 0.1
2018-Feb-17 05:30N 34°01' E 134°37'0 0.0
2018-Feb-17 05:00N 34°01' E 134°37'0 0.0
2018-Feb-17 04:30N 34°01' E 134°37'0 0.0
2018-Feb-17 04:00N 34°01' E 134°37'0 0.1
2018-Feb-17 03:30N 34°01' E 134°37'0 0.0
2018-Feb-17 02:53N 34°01' E 134°37'0 0.1
2018-Feb-17 02:28N 34°01' E 134°37'1 2.1
2018-Feb-17 01:57N 33°60' E 134°37'0 0.0
2018-Feb-17 01:30N 33°60' E 134°37'0 0.0
2018-Feb-17 01:00N 33°60' E 134°37'0 0.0
2018-Feb-17 00:30N 33°60' E 134°37'0 0.0
2018-Feb-17 00:00N 33°60' E 134°37'0 0.0
2018-Feb-16 23:29N 33°60' E 134°37'0 0.1
2018-Feb-16 22:59N 33°60' E 134°37'2 3.3
2018-Feb-16 22:30N 34°01' E 134°37'0 0.0
2018-Feb-16 21:50N 34°01' E 134°37'0 0.0
2018-Feb-16 21:30N 34°01' E 134°37'3 5.2
2018-Feb-16 21:00N 34°01' E 134°40'711.9
2018-Feb-16 20:23N 33°57' E 134°47'911.9
2018-Feb-16 19:37N 33°51' E 134°56'212.0
2018-Feb-16 19:29N 33°50' E 134°58'110 9.3
2018-Feb-16 07:36N 34°33' E 137°01'110.9
2018-Feb-16 07:29N 34°34' E 136°60'15 9.4
2018-Feb-16 05:57N 34°44' E 137°13'510.4
2018-Feb-16 05:29N 34°44' E 137°19'1 1.3
2018-Feb-16 05:00N 34°43' E 137°19'0 0.0
2018-Feb-16 04:29N 34°43' E 137°19'0 0.0
2018-Feb-16 04:00N 34°43' E 137°19'0 0.0
2018-Feb-16 03:30N 34°43' E 137°19'0 0.0
2018-Feb-16 02:56N 34°43' E 137°19'0 0.0
2018-Feb-16 01:01N 34°43' E 137°19'0 0.0
2018-Feb-16 00:58N 34°43' E 137°19'0 0.0
2018-Feb-15 23:43N 34°43' E 137°19'0 0.0
2018-Feb-15 23:28N 34°43' E 137°19'0 0.0
2018-Feb-15 22:58N 34°43' E 137°19'0 0.0
2018-Feb-15 22:14N 34°43' E 137°19'0 0.0
2018-Feb-15 21:52N 34°43' E 137°19'0 0.0
2018-Feb-15 21:26N 34°43' E 137°19'0 0.0
2018-Feb-15 17:06N 34°43' E 137°19'0 0.0
2018-Feb-15 16:04N 34°43' E 137°19'0 0.0
2018-Feb-15 08:12N 34°43' E 137°19'0 0.0
2018-Feb-15 07:40N 34°43' E 137°19'0 0.0
2018-Feb-15 07:25N 34°43' E 137°19'0 0.0
2018-Feb-15 06:51N 34°43' E 137°19'0 0.0
2018-Feb-15 03:35N 34°43' E 137°19'0 0.0
2018-Feb-15 03:30N 34°43' E 137°19'0 0.0
2018-Feb-15 02:59N 34°43' E 137°19'2 4.4
2018-Feb-15 02:27N 34°44' E 137°16'811.5
2018-Feb-15 01:46N 34°42' E 137°07'810.8
2018-Feb-15 01:02N 34°38' E 136°59'110.6
2018-Feb-15 00:58N 34°37' E 136°59'6410.4
2018-Feb-14 18:50N 34°34' E 138°16'410.2
2018-Feb-14 18:29N 34°34' E 138°21'510.4
2018-Feb-14 18:00N 34°34' E 138°27'510.4
2018-Feb-14 17:29N 34°35' E 138°33'510.3
2018-Feb-14 16:58N 34°35' E 138°40'810.2
2018-Feb-14 16:14N 34°35' E 138°49'5 9.1
2018-Feb-14 15:41N 34°35' E 138°55'2 9.1
2018-Feb-14 15:30N 34°36' E 138°57'510.0
2018-Feb-14 15:00N 34°39' E 139°01'29 8.9
2018-Feb-14 11:47N 34°59' E 139°26'3 8.0
2018-Feb-14 11:23N 35°01' E 139°29'3 7.7
2018-Feb-14 11:00N 35°03' E 139°32'5 8.7
2018-Feb-14 10:28N 35°05' E 139°37'4 9.5
2018-Feb-14 10:00N 35°07' E 139°41'5 9.7
2018-Feb-14 09:30N 35°11' E 139°45'5 9.9
2018-Feb-14 09:00N 35°16' E 139°45'612.0
2018-Feb-14 08:30N 35°21' E 139°41'2 4.3
2018-Feb-14 08:00N 35°22' E 139°39'0 0.0
2018-Feb-14 07:30N 35°22' E 139°39'0 0.0
2018-Feb-14 07:00N 35°22' E 139°39'0 0.0
2018-Feb-14 06:30N 35°22' E 139°39'0 0.0
2018-Feb-14 06:00N 35°22' E 139°39'0 0.0
2018-Feb-14 05:30N 35°22' E 139°39'0 0.0
2018-Feb-14 05:00N 35°22' E 139°39'0 0.0
2018-Feb-14 04:30N 35°22' E 139°39'0 0.0
2018-Feb-14 04:00N 35°22' E 139°39'0 0.0
2018-Feb-14 03:30N 35°22' E 139°39'0 0.0
2018-Feb-14 03:00N 35°22' E 139°39'0 0.0
2018-Feb-14 02:30N 35°22' E 139°39'0 0.0
2018-Feb-14 02:00N 35°22' E 139°39'0 0.0
2018-Feb-14 01:30N 35°22' E 139°39'0 0.0
2018-Feb-14 01:00N 35°22' E 139°39'0 0.0
2018-Feb-14 00:30N 35°22' E 139°39'0 0.0
2018-Feb-14 00:00N 35°22' E 139°39'0 0.0
2018-Feb-13 23:30N 35°22' E 139°39'0 0.0
2018-Feb-13 23:00N 35°22' E 139°39'0 0.0
2018-Feb-13 22:30N 35°22' E 139°39'1 2.7
2018-Feb-13 22:00N 35°23' E 139°41'611.8
2018-Feb-13 21:31N 35°27' E 139°46'3 6.8
2018-Feb-13 21:01N 35°29' E 139°49'0 0.0
2018-Feb-13 20:30N 35°29' E 139°49'0 0.0
2018-Feb-13 19:54N 35°29' E 139°49'0 0.1
2018-Feb-13 19:30N 35°29' E 139°49'0 0.1
2018-Feb-13 19:00N 35°29' E 139°49'0 0.0
2018-Feb-13 18:30N 35°29' E 139°49'0 0.1
2018-Feb-13 18:00N 35°29' E 139°49'0 0.0
2018-Feb-13 17:30N 35°29' E 139°49'0 0.0
2018-Feb-13 17:00N 35°29' E 139°49'0 0.0
2018-Feb-13 16:30N 35°29' E 139°49'0 0.0
2018-Feb-13 16:00N 35°29' E 139°49'0 0.0
2018-Feb-13 15:30N 35°29' E 139°49'0 0.0
2018-Feb-13 15:00N 35°29' E 139°49'0 0.0
2018-Feb-13 14:30N 35°29' E 139°49'0 0.0
2018-Feb-13 14:00N 35°29' E 139°49'0 0.0
2018-Feb-13 13:29N 35°29' E 139°49'0 0.0
2018-Feb-13 13:00N 35°29' E 139°49'0 0.0
2018-Feb-13 12:30N 35°29' E 139°49'0 0.0
2018-Feb-13 12:00N 35°29' E 139°49'0 0.0
2018-Feb-13 11:31N 35°29' E 139°49'0 0.0
2018-Feb-13 11:00N 35°29' E 139°49'0 0.0
2018-Feb-13 10:30N 35°29' E 139°49'0 0.0
2018-Feb-13 09:57N 35°29' E 139°49'0 0.0
2018-Feb-13 09:30N 35°29' E 139°49'0 0.2
2018-Feb-13 09:00N 35°29' E 139°49'0 0.0
2018-Feb-13 08:30N 35°29' E 139°49'0 0.1
2018-Feb-13 08:00N 35°29' E 139°49'0 0.0
2018-Feb-13 07:30N 35°29' E 139°49'0 0.0
2018-Feb-13 07:00N 35°29' E 139°49'0 0.1
2018-Feb-13 06:30N 35°29' E 139°49'0 0.0
2018-Feb-13 06:00N 35°29' E 139°49'0 0.0
2018-Feb-13 05:30N 35°29' E 139°49'0 0.1
2018-Feb-13 05:00N 35°29' E 139°49'0 0.0
2018-Feb-13 04:30N 35°29' E 139°49'0 0.0
2018-Feb-13 03:59N 35°29' E 139°49'4 5.5
2018-Feb-13 03:21N 35°33' E 139°50'4 9.8
2018-Feb-13 02:59N 35°35' E 139°46'  
Track history (hours):
 
Tides and Currents Weather Stations Pressure Air Temp Water Temp Dewpoint Dewpoint Depression Visibility Wind Speed Wind Dir Waves Ship Positions

Taisei Maru No.37

Last reported at 2018-Feb-23 02:30 UTC. Time now 2018-Feb-23 02:48 UTC.
Position N 35°35' E 139°46'.

Length 73 m; draft 4 m.

Type: Cargo ship. MMSI: 431300239.

Date/timePositionNaut miles runAvg speedWind from/ knotsBaromVisibWave heightAir tempDewpointWater temp
2018-Feb-23 02:30N 35°35' E 139°46'0 0.0
2018-Feb-23 02:00N 35°35' E 139°46'0 0.0
2018-Feb-23 01:30N 35°35' E 139°46'0 0.0
2018-Feb-23 01:00N 35°35' E 139°46'0 0.0
2018-Feb-23 00:31N 35°35' E 139°46'0 0.0
2018-Feb-23 00:00N 35°35' E 139°46'0 0.0
2018-Feb-22 23:30N 35°35' E 139°46'0 0.0
2018-Feb-22 23:00N 35°35' E 139°46'0 0.0
2018-Feb-22 22:31N 35°35' E 139°46'0 0.0
2018-Feb-22 22:00N 35°35' E 139°46'0 0.0
2018-Feb-22 21:30N 35°35' E 139°46'0 0.0
2018-Feb-22 20:59N 35°35' E 139°46'0 0.0
2018-Feb-22 20:31N 35°35' E 139°46'3 6.4
2018-Feb-22 20:00N 35°34' E 139°50'510.9
2018-Feb-22 19:30N 35°37' E 139°56'4 2.8
2018-Feb-22 17:54N 35°41' E 139°59'0 0.0
2018-Feb-22 17:21N 35°41' E 139°59'0 0.0
2018-Feb-22 16:50N 35°41' E 139°59'0 0.0
2018-Feb-22 16:29N 35°41' E 139°59'0 0.0
2018-Feb-22 16:01N 35°41' E 139°59'0 0.0
2018-Feb-22 15:27N 35°41' E 139°59'0 0.0
2018-Feb-22 13:57N 35°41' E 139°59'0 0.0
2018-Feb-22 11:50N 35°41' E 139°59'0 0.0
2018-Feb-22 10:50N 35°41' E 139°59'0 0.0
2018-Feb-22 10:24N 35°41' E 139°59'0 0.0
2018-Feb-22 09:11N 35°41' E 139°59'0 0.0
2018-Feb-22 08:37N 35°41' E 139°59'0 0.0
2018-Feb-22 08:10N 35°41' E 139°59'0 0.0
2018-Feb-22 07:57N 35°41' E 139°59'0 0.0
2018-Feb-22 05:25N 35°41' E 139°59'0 0.0
2018-Feb-22 02:46N 35°41' E 139°59'0 0.0
2018-Feb-22 02:23N 35°41' E 139°59'0 0.0
2018-Feb-22 01:58N 35°41' E 139°59'0 0.0
2018-Feb-22 01:00N 35°41' E 139°59'0 0.0
2018-Feb-22 00:30N 35°41' E 139°59'0 0.0
2018-Feb-21 23:58N 35°41' E 139°59'0 0.1
2018-Feb-21 23:29N 35°41' E 139°59'3 7.2
2018-Feb-21 23:00N 35°37' E 139°58'1 1.1
2018-Feb-21 22:30N 35°37' E 139°58'0 0.0
2018-Feb-21 22:00N 35°37' E 139°58'0 0.1
2018-Feb-21 21:31N 35°37' E 139°58'0 0.1
2018-Feb-21 20:57N 35°37' E 139°58'0 0.1
2018-Feb-21 20:29N 35°37' E 139°58'0 0.8
2018-Feb-21 19:59N 35°36' E 139°57'510.9
2018-Feb-21 19:30N 35°32' E 139°54'510.9
2018-Feb-21 19:00N 35°28' E 139°50'510.6
2018-Feb-21 18:30N 35°24' E 139°46'510.5
2018-Feb-21 18:00N 35°18' E 139°44'510.4
2018-Feb-21 17:30N 35°14' E 139°47'611.2
2018-Feb-21 17:00N 35°08' E 139°46'611.6
2018-Feb-21 16:30N 35°03' E 139°42'611.5
2018-Feb-21 16:00N 34°59' E 139°37'1910.8
2018-Feb-21 14:17N 34°49' E 139°18'311.6
2018-Feb-21 13:59N 34°47' E 139°15'811.1
2018-Feb-21 13:17N 34°42' E 139°08'310.0
2018-Feb-21 13:00N 34°40' E 139°05'510.0
2018-Feb-21 12:30N 34°37' E 138°60'610.2
2018-Feb-21 11:54N 34°35' E 138°53'911.3
2018-Feb-21 11:07N 34°32' E 138°43'211.3
2018-Feb-21 10:54N 34°32' E 138°40'711.6
2018-Feb-21 10:20N 34°30' E 138°32'33210.1
2018-Feb-20 01:30N 33°17' E 132°03'910.0
2018-Feb-20 00:36N 33°24' E 131°56'1 9.9
2018-Feb-20 00:30N 33°25' E 131°56'810.0
2018-Feb-19 23:43N 33°31' E 131°50'210.1
2018-Feb-19 23:29N 33°33' E 131°49'5 9.7
2018-Feb-19 23:00N 33°37' E 131°45'510.1
2018-Feb-19 22:29N 33°41' E 131°41'4 9.2
2018-Feb-19 22:00N 33°42' E 131°36'510.6
2018-Feb-19 21:30N 33°45' E 131°30'511.0
2018-Feb-19 21:00N 33°47' E 131°24'611.4
2018-Feb-19 20:30N 33°49' E 131°18'611.5
2018-Feb-19 20:00N 33°51' E 131°12'611.8
2018-Feb-19 19:30N 33°54' E 131°06'611.8
2018-Feb-19 19:00N 33°59' E 131°00'612.1
2018-Feb-19 18:31N 33°54' E 130°55'4 8.9
2018-Feb-19 18:00N 33°58' E 130°52'510.7
2018-Feb-19 17:30N 34°03' E 130°51'611.0
2018-Feb-19 17:00N 34°09' E 130°50'611.2
2018-Feb-19 16:30N 34°14' E 130°49'611.0
2018-Feb-19 15:59N 34°20' E 130°48'5 9.3
2018-Feb-19 15:29N 34°24' E 130°51'1 0.1
2018-Feb-19 07:57N 34°23' E 130°51'511.3
2018-Feb-19 07:30N 34°19' E 130°49'611.7
2018-Feb-19 07:00N 34°13' E 130°49'612.1
2018-Feb-19 06:31N 34°07' E 130°50'612.4
2018-Feb-19 06:00N 34°01' E 130°53'510.9
2018-Feb-19 05:31N 33°55' E 130°53'4 8.1
2018-Feb-19 05:01N 33°58' E 130°57'510.1
2018-Feb-19 04:30N 33°56' E 131°03'612.3
2018-Feb-19 04:00N 33°50' E 131°04'4 8.4
2018-Feb-19 03:30N 33°47' E 131°00'0 0.0
2018-Feb-19 03:00N 33°47' E 131°00'0 0.0
2018-Feb-19 02:30N 33°47' E 131°00'0 0.0
2018-Feb-19 02:00N 33°47' E 131°00'0 0.0
2018-Feb-19 01:30N 33°47' E 131°00'0 0.0
2018-Feb-19 01:00N 33°47' E 131°00'0 0.0
2018-Feb-19 00:30N 33°47' E 131°00'0 0.0
2018-Feb-19 00:00N 33°47' E 131°00'0 0.0
2018-Feb-18 23:30N 33°47' E 131°00'0 0.0
2018-Feb-18 22:59N 33°47' E 131°00'1 1.7
2018-Feb-18 22:30N 33°46' E 130°60'0 0.0
2018-Feb-18 22:00N 33°46' E 130°60'0 0.0
2018-Feb-18 21:30N 33°46' E 130°60'0 0.0
2018-Feb-18 21:00N 33°46' E 130°60'0 0.0
2018-Feb-18 20:30N 33°46' E 130°60'0 0.0
2018-Feb-18 20:00N 33°46' E 130°60'0 0.0
2018-Feb-18 19:29N 33°46' E 130°60'0 0.0
2018-Feb-18 19:00N 33°46' E 130°60'0 0.0
2018-Feb-18 18:30N 33°46' E 130°60'0 0.0
2018-Feb-18 18:00N 33°46' E 130°60'0 0.0
2018-Feb-18 17:30N 33°46' E 130°60'0 0.0
2018-Feb-18 17:00N 33°46' E 130°60'0 0.0
2018-Feb-18 16:30N 33°46' E 130°60'0 0.0
2018-Feb-18 16:00N 33°46' E 130°60'0 0.0
2018-Feb-18 15:30N 33°46' E 130°60'0 0.0
2018-Feb-18 15:00N 33°46' E 130°60'0 0.0
2018-Feb-18 14:30N 33°46' E 130°60'0 0.0
2018-Feb-18 13:59N 33°46' E 130°60'0 0.0
2018-Feb-18 13:30N 33°46' E 130°60'0 0.0
2018-Feb-18 13:00N 33°46' E 130°60'0 0.0
2018-Feb-18 12:30N 33°46' E 130°60'0 0.0
2018-Feb-18 12:00N 33°46' E 130°60'0 0.0
2018-Feb-18 11:30N 33°46' E 130°60'0 0.0
2018-Feb-18 11:00N 33°46' E 130°60'0 0.0
2018-Feb-18 10:30N 33°46' E 130°60'0 0.0
2018-Feb-18 10:00N 33°46' E 130°60'0 0.1
2018-Feb-18 09:30N 33°46' E 130°60'0 0.1
2018-Feb-18 09:00N 33°46' E 130°60'0 0.0
2018-Feb-18 08:30N 33°46' E 130°60'0 0.0
2018-Feb-18 08:00N 33°46' E 130°60'0 0.0
2018-Feb-18 07:30N 33°46' E 130°60'0 0.0
2018-Feb-18 07:00N 33°46' E 130°60'0 0.0
2018-Feb-18 06:30N 33°46' E 130°60'0 0.0
2018-Feb-18 05:59N 33°46' E 130°60'0 0.0
2018-Feb-18 05:30N 33°46' E 130°60'0 0.0
2018-Feb-18 05:00N 33°46' E 130°60'0 0.0
2018-Feb-18 04:30N 33°46' E 130°60'0 0.0
2018-Feb-18 04:00N 33°46' E 130°60'0 0.0
2018-Feb-18 03:30N 33°46' E 130°60'0 0.0
2018-Feb-18 02:59N 33°46' E 130°60'0 0.0
2018-Feb-18 02:30N 33°46' E 130°60'0 0.0
2018-Feb-18 02:00N 33°46' E 130°60'0 0.0
2018-Feb-18 01:30N 33°46' E 130°60'0 0.0
2018-Feb-18 01:00N 33°46' E 130°60'1 1.9
2018-Feb-18 00:30N 33°47' E 131°01'510.5
2018-Feb-18 00:00N 33°49' E 131°07'612.2
2018-Feb-17 23:30N 33°48' E 131°14'612.3
2018-Feb-17 23:00N 33°48' E 131°21'612.4
2018-Feb-17 22:30N 33°47' E 131°29'612.6
2018-Feb-17 22:00N 33°47' E 131°36'612.4
2018-Feb-17 21:30N 33°47' E 131°44'2411.8
2018-Feb-17 19:26N 33°43' E 132°13'812.6
2018-Feb-17 18:47N 33°46' E 132°22'512.8
2018-Feb-17 18:24N 33°48' E 132°28'513.2
2018-Feb-17 18:00N 33°51' E 132°33'713.3
2018-Feb-17 17:30N 33°55' E 132°39'713.2
2018-Feb-17 17:00N 34°00' E 132°44'8410.4
2018-Feb-17 08:53N 34°22' E 134°23'610.7
2018-Feb-17 08:20N 34°19' E 134°29'510.8
2018-Feb-17 07:54N 34°17' E 134°34'4 9.9
2018-Feb-17 07:30N 34°15' E 134°39'6 9.2
2018-Feb-17 06:50N 34°09' E 134°40'410.6
2018-Feb-17 06:25N 34°05' E 134°38'4 9.9
2018-Feb-17 06:00N 34°01' E 134°37'0 0.1
2018-Feb-17 05:30N 34°01' E 134°37'0 0.0
2018-Feb-17 05:00N 34°01' E 134°37'0 0.0
2018-Feb-17 04:30N 34°01' E 134°37'0 0.0
2018-Feb-17 04:00N 34°01' E 134°37'0 0.1
2018-Feb-17 03:30N 34°01' E 134°37'0 0.0
2018-Feb-17 02:53N 34°01' E 134°37'0 0.1
2018-Feb-17 02:28N 34°01' E 134°37'1 2.1
2018-Feb-17 01:57N 33°60' E 134°37'0 0.0
2018-Feb-17 01:30N 33°60' E 134°37'0 0.0
2018-Feb-17 01:00N 33°60' E 134°37'0 0.0
2018-Feb-17 00:30N 33°60' E 134°37'0 0.0
2018-Feb-17 00:00N 33°60' E 134°37'0 0.0
2018-Feb-16 23:29N 33°60' E 134°37'0 0.1
2018-Feb-16 22:59N 33°60' E 134°37'2 3.3
2018-Feb-16 22:30N 34°01' E 134°37'0 0.0
2018-Feb-16 21:50N 34°01' E 134°37'0 0.0
2018-Feb-16 21:30N 34°01' E 134°37'3 5.2
2018-Feb-16 21:00N 34°01' E 134°40'711.9
2018-Feb-16 20:23N 33°57' E 134°47'911.9
2018-Feb-16 19:37N 33°51' E 134°56'212.0
2018-Feb-16 19:29N 33°50' E 134°58'110 9.3
2018-Feb-16 07:36N 34°33' E 137°01'110.9
2018-Feb-16 07:29N 34°34' E 136°60'15 9.4
2018-Feb-16 05:57N 34°44' E 137°13'510.4
2018-Feb-16 05:29N 34°44' E 137°19'1 1.3
2018-Feb-16 05:00N 34°43' E 137°19'0 0.0
2018-Feb-16 04:29N 34°43' E 137°19'0 0.0
2018-Feb-16 04:00N 34°43' E 137°19'0 0.0
2018-Feb-16 03:30N 34°43' E 137°19'0 0.0
2018-Feb-16 02:56N 34°43' E 137°19'0 0.0
2018-Feb-16 01:01N 34°43' E 137°19'0 0.0
2018-Feb-16 00:58N 34°43' E 137°19'0 0.0
2018-Feb-15 23:43N 34°43' E 137°19'0 0.0
2018-Feb-15 23:28N 34°43' E 137°19'0 0.0
2018-Feb-15 22:58N 34°43' E 137°19'0 0.0
2018-Feb-15 22:14N 34°43' E 137°19'0 0.0
2018-Feb-15 21:52N 34°43' E 137°19'0 0.0
2018-Feb-15 21:26N 34°43' E 137°19'0 0.0
2018-Feb-15 17:06N 34°43' E 137°19'0 0.0
2018-Feb-15 16:04N 34°43' E 137°19'0 0.0
2018-Feb-15 08:12N 34°43' E 137°19'0 0.0
2018-Feb-15 07:40N 34°43' E 137°19'0 0.0
2018-Feb-15 07:25N 34°43' E 137°19'0 0.0
2018-Feb-15 06:51N 34°43' E 137°19'0 0.0
2018-Feb-15 03:35N 34°43' E 137°19'0 0.0
2018-Feb-15 03:30N 34°43' E 137°19'0 0.0
2018-Feb-15 02:59N 34°43' E 137°19'2 4.4
2018-Feb-15 02:27N 34°44' E 137°16'811.5
2018-Feb-15 01:46N 34°42' E 137°07'810.8
2018-Feb-15 01:02N 34°38' E 136°59'110.6
2018-Feb-15 00:58N 34°37' E 136°59'6410.4
2018-Feb-14 18:50N 34°34' E 138°16'410.2
2018-Feb-14 18:29N 34°34' E 138°21'510.4
2018-Feb-14 18:00N 34°34' E 138°27'510.4
2018-Feb-14 17:29N 34°35' E 138°33'510.3
2018-Feb-14 16:58N 34°35' E 138°40'810.2
2018-Feb-14 16:14N 34°35' E 138°49'5 9.1
2018-Feb-14 15:41N 34°35' E 138°55'2 9.1
2018-Feb-14 15:30N 34°36' E 138°57'510.0
2018-Feb-14 15:00N 34°39' E 139°01'29 8.9
2018-Feb-14 11:47N 34°59' E 139°26'3 8.0
2018-Feb-14 11:23N 35°01' E 139°29'3 7.7
2018-Feb-14 11:00N 35°03' E 139°32'5 8.7
2018-Feb-14 10:28N 35°05' E 139°37'4 9.5
2018-Feb-14 10:00N 35°07' E 139°41'5 9.7
2018-Feb-14 09:30N 35°11' E 139°45'5 9.9
2018-Feb-14 09:00N 35°16' E 139°45'612.0
2018-Feb-14 08:30N 35°21' E 139°41'2 4.3
2018-Feb-14 08:00N 35°22' E 139°39'0 0.0
2018-Feb-14 07:30N 35°22' E 139°39'0 0.0
2018-Feb-14 07:00N 35°22' E 139°39'0 0.0
2018-Feb-14 06:30N 35°22' E 139°39'0 0.0
2018-Feb-14 06:00N 35°22' E 139°39'0 0.0
2018-Feb-14 05:30N 35°22' E 139°39'0 0.0
2018-Feb-14 05:00N 35°22' E 139°39'0 0.0
2018-Feb-14 04:30N 35°22' E 139°39'0 0.0
2018-Feb-14 04:00N 35°22' E 139°39'0 0.0
2018-Feb-14 03:30N 35°22' E 139°39'0 0.0
2018-Feb-14 03:00N 35°22' E 139°39'0 0.0
2018-Feb-14 02:30N 35°22' E 139°39'0 0.0
2018-Feb-14 02:00N 35°22' E 139°39'0 0.0
2018-Feb-14 01:30N 35°22' E 139°39'0 0.0
2018-Feb-14 01:00N 35°22' E 139°39'0 0.0
2018-Feb-14 00:30N 35°22' E 139°39'0 0.0
2018-Feb-14 00:00N 35°22' E 139°39'0 0.0
2018-Feb-13 23:30N 35°22' E 139°39'0 0.0
2018-Feb-13 23:00N 35°22' E 139°39'0 0.0
2018-Feb-13 22:30N 35°22' E 139°39'1 2.7
2018-Feb-13 22:00N 35°23' E 139°41'611.8
2018-Feb-13 21:31N 35°27' E 139°46'3 6.8
2018-Feb-13 21:01N 35°29' E 139°49'0 0.0
2018-Feb-13 20:30N 35°29' E 139°49'0 0.0
2018-Feb-13 19:54N 35°29' E 139°49'0 0.1
2018-Feb-13 19:30N 35°29' E 139°49'0 0.1
2018-Feb-13 19:00N 35°29' E 139°49'0 0.0
2018-Feb-13 18:30N 35°29' E 139°49'0 0.1
2018-Feb-13 18:00N 35°29' E 139°49'0 0.0
2018-Feb-13 17:30N 35°29' E 139°49'0 0.0
2018-Feb-13 17:00N 35°29' E 139°49'0 0.0
2018-Feb-13 16:30N 35°29' E 139°49'0 0.0
2018-Feb-13 16:00N 35°29' E 139°49'0 0.0
2018-Feb-13 15:30N 35°29' E 139°49'0 0.0
2018-Feb-13 15:00N 35°29' E 139°49'0 0.0
2018-Feb-13 14:30N 35°29' E 139°49'0 0.0
2018-Feb-13 14:00N 35°29' E 139°49'0 0.0
2018-Feb-13 13:29N 35°29' E 139°49'0 0.0
2018-Feb-13 13:00N 35°29' E 139°49'0 0.0
2018-Feb-13 12:30N 35°29' E 139°49'0 0.0
2018-Feb-13 12:00N 35°29' E 139°49'0 0.0
2018-Feb-13 11:31N 35°29' E 139°49'0 0.0
2018-Feb-13 11:00N 35°29' E 139°49'0 0.0
2018-Feb-13 10:30N 35°29' E 139°49'0 0.0
2018-Feb-13 09:57N 35°29' E 139°49'0 0.0
2018-Feb-13 09:30N 35°29' E 139°49'0 0.2
2018-Feb-13 09:00N 35°29' E 139°49'0 0.0
2018-Feb-13 08:30N 35°29' E 139°49'0 0.1
2018-Feb-13 08:00N 35°29' E 139°49'0 0.0
2018-Feb-13 07:30N 35°29' E 139°49'0 0.0
2018-Feb-13 07:00N 35°29' E 139°49'0 0.1
2018-Feb-13 06:30N 35°29' E 139°49'0 0.0
2018-Feb-13 06:00N 35°29' E 139°49'0 0.0
2018-Feb-13 05:30N 35°29' E 139°49'0 0.1
2018-Feb-13 05:00N 35°29' E 139°49'0 0.0
2018-Feb-13 04:30N 35°29' E 139°49'0 0.0
2018-Feb-13 03:59N 35°29' E 139°49'4 5.5
2018-Feb-13 03:21N 35°33' E 139°50'4 9.8
2018-Feb-13 02:59N 35°35' E 139°46'  

Dump ship's entire track history